createdAt,value
2018-09-13T00:00:39.686Z,11.80
2018-09-13T00:01:39.990Z,11.70
2018-09-13T00:02:40.242Z,11.50
2018-09-13T00:03:40.472Z,11.40
2018-09-13T00:04:40.691Z,12.10
2018-09-13T00:05:41.057Z,10.70
2018-09-13T00:06:41.167Z,11.40
2018-09-13T00:07:41.383Z,11.40
2018-09-13T00:08:41.516Z,11.60
2018-09-13T00:09:41.924Z,11.80
2018-09-13T00:10:42.110Z,10.90
2018-09-13T00:11:42.322Z,10.70
2018-09-13T00:12:42.441Z,10.30
2018-09-13T00:13:42.676Z,10.40
2018-09-13T00:14:42.861Z,10.50
2018-09-13T00:15:43.119Z,11.00
2018-09-13T00:16:43.424Z,11.30
2018-09-13T00:17:43.737Z,10.80
2018-09-13T00:18:44.072Z,11.20
2018-09-13T00:19:44.219Z,11.60
2018-09-13T00:20:44.430Z,11.10
2018-09-13T00:21:44.550Z,10.50
2018-09-13T00:22:44.842Z,10.70
2018-09-13T00:23:44.975Z,11.00
2018-09-13T00:24:45.168Z,10.90
2018-09-13T00:25:45.393Z,11.00
2018-09-13T00:26:45.770Z,11.00
2018-09-13T00:27:45.930Z,11.10
2018-09-13T00:28:46.121Z,11.60
2018-09-13T00:29:46.232Z,10.70
2018-09-13T00:30:46.440Z,11.40
2018-09-13T00:31:46.659Z,10.90
2018-09-13T00:32:46.873Z,10.70
2018-09-13T00:33:47.091Z,12.20
2018-09-13T00:34:47.330Z,10.90
2018-09-13T00:35:47.542Z,10.80
2018-09-13T00:36:47.717Z,10.90
2018-09-13T00:37:48.186Z,11.20
2018-09-13T00:38:49.157Z,11.40
2018-09-13T00:39:49.558Z,11.00
2018-09-13T00:40:49.463Z,11.00
2018-09-13T00:41:50.400Z,11.60
2018-09-13T00:42:51.006Z,10.70
2018-09-13T00:43:51.117Z,10.90
2018-09-13T00:44:51.232Z,11.80
2018-09-13T00:45:51.210Z,10.90
2018-09-13T00:46:51.451Z,11.10
2018-09-13T00:47:51.857Z,11.00
2018-09-13T00:48:52.064Z,12.60
2018-09-13T00:49:52.075Z,11.30
2018-09-13T00:50:52.156Z,11.10
2018-09-13T00:51:52.261Z,11.90
2018-09-13T00:52:52.266Z,11.60
2018-09-13T00:53:52.276Z,10.80
2018-09-13T00:54:52.130Z,10.90
2018-09-13T00:55:52.620Z,11.20
2018-09-13T00:56:53.017Z,10.60
2018-09-13T00:57:53.446Z,11.50
2018-09-13T00:58:53.906Z,11.30
2018-09-13T00:59:54.248Z,11.40
2018-09-13T01:00:54.442Z,11.20
2018-09-13T01:01:54.671Z,10.50
2018-09-13T01:02:54.844Z,10.20
2018-09-13T01:03:55.100Z,11.10
2018-09-13T01:04:55.399Z,11.50
2018-09-13T01:05:55.735Z,11.10
2018-09-13T01:06:55.839Z,11.60
2018-09-13T01:07:56.002Z,11.60
2018-09-13T01:08:56.332Z,10.90
2018-09-13T01:09:56.702Z,11.20
2018-09-13T01:10:56.841Z,10.80
2018-09-13T01:11:56.959Z,10.50
2018-09-13T01:12:57.165Z,11.30
2018-09-13T01:13:57.369Z,10.30
2018-09-13T01:14:57.585Z,11.20
2018-09-13T01:15:57.854Z,10.40
2018-09-13T01:16:58.019Z,10.10
2018-09-13T01:17:58.296Z,10.50
2018-09-13T01:18:58.433Z,10.50
2018-09-13T01:19:58.644Z,9.90
2018-09-13T01:20:58.925Z,10.90
2018-09-13T01:22:59.232Z,11.20
2018-09-13T01:23:59.432Z,11.50
2018-09-13T01:24:59.595Z,10.90
2018-09-13T01:25:59.917Z,10.20
2018-09-13T01:27:00.136Z,11.40
2018-09-13T01:29:00.343Z,10.60
2018-09-13T01:30:00.547Z,11.50
2018-09-13T01:31:00.771Z,10.50
2018-09-13T01:32:01.042Z,10.80
2018-09-13T01:33:01.157Z,10.00
2018-09-13T01:34:01.337Z,10.50
2018-09-13T01:35:01.537Z,11.10
2018-09-13T01:36:01.719Z,10.60
2018-09-13T01:37:02.285Z,11.50
2018-09-13T01:38:02.222Z,10.80
2018-09-13T01:39:02.586Z,11.30
2018-09-13T01:40:03.459Z,10.00
2018-09-13T01:41:03.983Z,10.90
2018-09-13T01:42:03.987Z,10.20
2018-09-13T01:43:03.987Z,10.30
2018-09-13T01:44:04.220Z,9.60
2018-09-13T01:45:04.521Z,9.60
2018-09-13T01:46:04.935Z,9.70
2018-09-13T01:47:05.454Z,10.00
2018-09-13T01:48:05.064Z,10.40
2018-09-13T01:49:05.377Z,9.70
2018-09-13T01:50:05.986Z,10.30
2018-09-13T01:51:05.791Z,10.10
2018-09-13T01:52:06.307Z,10.00
2018-09-13T01:53:06.420Z,10.20
2018-09-13T01:54:06.329Z,9.80
2018-09-13T01:55:06.735Z,9.60
2018-09-13T01:56:07.033Z,10.50
2018-09-13T01:57:07.159Z,9.50
2018-09-13T01:58:07.328Z,10.60
2018-09-13T01:59:07.344Z,11.00
2018-09-13T02:00:07.333Z,10.20
2018-09-13T02:01:07.617Z,9.70
2018-09-13T02:02:07.888Z,10.20
2018-09-13T02:03:08.324Z,10.00
2018-09-13T02:04:08.588Z,10.40
2018-09-13T02:05:09.010Z,9.80
2018-09-13T02:06:09.615Z,9.90
2018-09-13T02:07:09.740Z,9.90
2018-09-13T02:08:09.738Z,10.30
2018-09-13T02:09:10.275Z,8.80
2018-09-13T02:10:09.965Z,10.30
2018-09-13T02:11:10.239Z,9.50
2018-09-13T02:12:10.701Z,9.20
2018-09-13T02:13:10.863Z,9.20
2018-09-13T02:14:11.083Z,9.70
2018-09-13T02:15:11.471Z,8.90
2018-09-13T02:16:11.645Z,9.70
2018-09-13T02:17:11.941Z,9.50
2018-09-13T02:18:12.122Z,9.30
2018-09-13T02:19:12.262Z,9.80
2018-09-13T02:20:12.672Z,9.50
2018-09-13T02:21:12.786Z,9.40
2018-09-13T02:22:12.964Z,10.00
2018-09-13T02:23:13.085Z,9.30
2018-09-13T02:24:13.381Z,9.20
2018-09-13T02:25:13.763Z,9.70
2018-09-13T02:26:13.921Z,9.70
2018-09-13T02:27:14.136Z,9.00
2018-09-13T02:28:14.361Z,9.20
2018-09-13T02:29:14.580Z,9.70
2018-09-13T02:30:14.841Z,9.00
2018-09-13T02:31:14.965Z,9.00
2018-09-13T02:32:15.184Z,9.50
2018-09-13T02:33:15.300Z,9.40
2018-09-13T02:34:15.515Z,9.10
2018-09-13T02:35:15.869Z,9.70
2018-09-13T02:36:16.038Z,9.90
2018-09-13T02:37:16.246Z,9.50
2018-09-13T02:38:16.350Z,9.80
2018-09-13T02:39:16.574Z,9.50
2018-09-13T02:40:17.006Z,9.30
2018-09-13T02:41:17.270Z,9.60
2018-09-13T02:42:17.407Z,8.90
2018-09-13T02:43:17.612Z,9.70
2018-09-13T02:44:18.127Z,10.30
2018-09-13T02:45:17.918Z,9.80
2018-09-13T02:46:18.537Z,9.60
2018-09-13T02:47:18.750Z,10.00
2018-09-13T02:48:19.072Z,10.00
2018-09-13T02:49:19.568Z,10.10
2018-09-13T02:50:19.793Z,8.80
2018-09-13T02:51:20.209Z,9.80
2018-09-13T02:52:20.661Z,9.90
2018-09-13T02:53:21.036Z,9.50
2018-09-13T02:54:21.149Z,9.50
2018-09-13T02:55:21.163Z,10.30
2018-09-13T02:56:21.374Z,9.10
2018-09-13T02:57:21.380Z,10.00
2018-09-13T02:58:21.582Z,10.10
2018-09-13T02:59:21.986Z,8.70
2018-09-13T03:00:22.109Z,9.50
2018-09-13T03:01:22.176Z,9.40
2018-09-13T03:02:22.293Z,9.80
2018-09-13T03:03:22.191Z,10.30
2018-09-13T03:04:22.530Z,10.40
2018-09-13T03:05:22.866Z,9.10
2018-09-13T03:06:23.378Z,9.60
2018-09-13T03:07:23.293Z,9.60
2018-09-13T03:08:23.737Z,10.40
2018-09-13T03:09:24.075Z,10.50
2018-09-13T03:10:24.575Z,9.70
2018-09-13T03:11:24.838Z,9.50
2018-09-13T03:12:24.992Z,10.10
2018-09-13T03:13:25.224Z,10.00
2018-09-13T03:14:25.399Z,10.20
2018-09-13T03:15:25.650Z,9.50
2018-09-13T03:16:25.929Z,9.60
2018-09-13T03:17:26.190Z,10.30
2018-09-13T03:18:26.344Z,10.20
2018-09-13T03:19:26.597Z,9.70
2018-09-13T03:20:26.961Z,9.80
2018-09-13T03:21:27.343Z,9.50
2018-09-13T03:22:27.791Z,10.20
2018-09-13T03:23:27.914Z,9.50
2018-09-13T03:24:28.124Z,9.80
2018-09-13T03:25:28.457Z,9.50
2018-09-13T03:26:28.679Z,9.80
2018-09-13T03:27:28.948Z,10.10
2018-09-13T03:28:29.346Z,9.60
2018-09-13T03:29:29.509Z,9.60
2018-09-13T03:30:29.637Z,10.10
2018-09-13T03:31:29.780Z,9.10
2018-09-13T03:32:29.966Z,9.70
2018-09-13T03:33:30.211Z,9.90
2018-09-13T03:34:30.336Z,10.00
2018-09-13T03:35:30.596Z,9.40
2018-09-13T03:36:30.803Z,9.60
2018-09-13T03:37:30.970Z,9.60
2018-09-13T03:38:31.190Z,9.00
2018-09-13T03:39:31.460Z,9.80
2018-09-13T03:40:31.730Z,9.50
2018-09-13T03:41:32.036Z,9.30
2018-09-13T03:42:32.260Z,9.10
2018-09-13T03:43:32.446Z,9.60
2018-09-13T03:44:32.817Z,9.10
2018-09-13T03:45:33.581Z,10.10
2018-09-13T03:46:33.779Z,10.10
2018-09-13T03:47:34.060Z,8.90
2018-09-13T03:48:34.261Z,9.90
2018-09-13T03:49:34.618Z,9.10
2018-09-13T03:50:35.057Z,8.80
2018-09-13T03:51:35.658Z,9.80
2018-09-13T03:52:35.557Z,9.30
2018-09-13T03:53:36.034Z,9.40
2018-09-13T03:54:36.381Z,8.80
2018-09-13T03:55:36.329Z,9.90
2018-09-13T03:56:37.090Z,8.90
2018-09-13T03:57:37.095Z,10.20
2018-09-13T03:58:37.211Z,9.50
2018-09-13T03:59:37.199Z,9.50
2018-09-13T04:00:37.622Z,9.60
2018-09-13T04:01:38.031Z,9.70
2018-09-13T04:02:38.873Z,9.40
2018-09-13T04:03:38.753Z,9.10
2018-09-13T04:04:39.107Z,9.30
2018-09-13T04:05:39.267Z,9.20
2018-09-13T04:06:39.471Z,9.00
2018-09-13T04:07:39.669Z,8.90
2018-09-13T04:08:39.923Z,9.00
2018-09-13T04:09:40.235Z,8.10
2018-09-13T04:10:40.363Z,8.90
2018-09-13T04:11:40.582Z,8.60
2018-09-13T04:12:40.725Z,9.00
2018-09-13T04:13:40.939Z,8.60
2018-09-13T04:14:41.389Z,8.70
2018-09-13T04:15:41.792Z,8.50
2018-09-13T04:16:41.992Z,8.50
2018-09-13T04:17:42.153Z,8.00
2018-09-13T04:18:42.326Z,9.20
2018-09-13T04:19:42.508Z,8.30
2018-09-13T04:20:42.791Z,8.80
2018-09-13T04:21:43.200Z,8.40
2018-09-13T04:22:43.443Z,8.40
2018-09-13T04:23:43.570Z,8.00
2018-09-13T04:24:43.722Z,8.40
2018-09-13T04:25:43.900Z,9.30
2018-09-13T04:26:44.228Z,9.40
2018-09-13T04:27:44.338Z,8.30
2018-09-13T04:28:44.521Z,8.10
2018-09-13T04:29:44.768Z,8.10
2018-09-13T04:30:44.962Z,8.70
2018-09-13T04:31:45.152Z,8.30
2018-09-13T04:32:45.362Z,8.00
2018-09-13T04:33:45.629Z,8.00
2018-09-13T04:34:45.789Z,8.90
2018-09-13T04:35:46.093Z,7.60
2018-09-13T04:36:46.213Z,7.70
2018-09-13T04:37:46.466Z,8.90
2018-09-13T04:38:46.755Z,7.30
2018-09-13T04:39:46.987Z,7.90
2018-09-13T04:40:47.169Z,7.80
2018-09-13T04:41:47.484Z,8.20
2018-09-13T04:42:47.595Z,8.00
2018-09-13T04:43:47.738Z,7.40
2018-09-13T04:44:47.937Z,8.20
2018-09-13T04:45:48.433Z,7.20
2018-09-13T04:46:49.430Z,7.20
2018-09-13T04:47:49.641Z,7.50
2018-09-13T04:48:50.064Z,7.70
2018-09-13T04:49:50.583Z,7.60
2018-09-13T04:50:50.579Z,7.50
2018-09-13T04:51:50.584Z,8.00
2018-09-13T04:52:50.593Z,7.50
2018-09-13T04:53:50.594Z,7.40
2018-09-13T04:54:51.055Z,8.20
2018-09-13T04:55:51.333Z,7.50
2018-09-13T04:56:51.541Z,7.90
2018-09-13T04:57:51.650Z,7.70
2018-09-13T04:58:51.414Z,8.20
2018-09-13T04:59:52.067Z,8.00
2018-09-13T05:00:52.167Z,7.90
2018-09-13T05:02:52.281Z,8.10
2018-09-13T05:03:52.266Z,8.50
2018-09-13T05:04:52.699Z,8.70
2018-09-13T05:05:53.067Z,7.30
2018-09-13T05:06:53.439Z,7.70
2018-09-13T05:07:53.807Z,7.60
2018-09-13T05:08:54.204Z,8.40
2018-09-13T05:09:54.472Z,8.50
2018-09-13T05:10:54.701Z,8.90
2018-09-13T05:11:54.818Z,8.70
2018-09-13T05:12:55.163Z,7.90
2018-09-13T05:13:55.232Z,8.80
2018-09-13T05:14:55.371Z,9.00
2018-09-13T05:15:55.472Z,8.70
2018-09-13T05:16:55.684Z,9.40
2018-09-13T05:17:56.091Z,9.00
2018-09-13T05:18:56.381Z,8.80
2018-09-13T05:19:56.608Z,9.40
2018-09-13T05:20:56.756Z,10.20
2018-09-13T05:21:57.039Z,9.60
2018-09-13T05:22:57.384Z,9.40
2018-09-13T05:23:57.588Z,10.30
2018-09-13T05:24:57.795Z,10.00
2018-09-13T05:25:58.096Z,9.70
2018-09-13T05:26:58.315Z,9.60
2018-09-13T05:27:58.410Z,10.70
2018-09-13T05:28:58.656Z,9.70
2018-09-13T05:29:58.840Z,9.50
2018-09-13T05:30:59.056Z,9.80
2018-09-13T05:31:59.269Z,9.90
2018-09-13T05:32:59.484Z,9.90
2018-09-13T05:33:59.701Z,10.40
2018-09-13T05:36:00.033Z,10.10
2018-09-13T05:37:00.215Z,9.70
2018-09-13T05:38:00.470Z,9.60
2018-09-13T05:39:00.786Z,10.20
2018-09-13T05:40:00.803Z,10.30
2018-09-13T05:41:00.973Z,11.30
2018-09-13T05:42:01.206Z,10.00
2018-09-13T05:43:01.490Z,9.90
2018-09-13T05:44:01.853Z,9.70
2018-09-13T05:45:02.249Z,10.20
2018-09-13T05:46:02.548Z,9.40
2018-09-13T05:47:02.678Z,10.00
2018-09-13T05:48:03.343Z,10.10
2018-09-13T05:49:03.673Z,10.00
2018-09-13T05:50:04.278Z,9.70
2018-09-13T05:51:04.112Z,9.00
2018-09-13T05:52:04.565Z,8.80
2018-09-13T05:53:05.013Z,8.90
2018-09-13T05:54:04.851Z,9.30
2018-09-13T05:55:05.447Z,8.60
2018-09-13T05:56:05.769Z,10.30
2018-09-13T05:57:06.070Z,10.30
2018-09-13T05:58:05.752Z,10.00
2018-09-13T05:59:06.579Z,9.10
2018-09-13T06:00:06.915Z,9.90
2018-09-13T06:01:07.197Z,9.70
2018-09-13T06:02:07.278Z,9.70
2018-09-13T06:03:07.291Z,10.40
2018-09-13T06:04:07.330Z,10.40
2018-09-13T06:05:07.351Z,9.90
2018-09-13T06:06:07.537Z,10.50
2018-09-13T06:07:07.400Z,9.70
2018-09-13T06:08:07.725Z,9.80
2018-09-13T06:09:07.923Z,9.90
2018-09-13T06:10:08.290Z,10.30
2018-09-13T06:11:08.707Z,10.10
2018-09-13T06:12:08.857Z,10.50
2018-09-13T06:13:09.479Z,10.80
2018-09-13T06:14:09.468Z,10.00
2018-09-13T06:15:09.754Z,9.90
2018-09-13T06:16:09.895Z,10.60
2018-09-13T06:17:10.100Z,11.50
2018-09-13T06:18:10.315Z,10.30
2018-09-13T06:19:10.548Z,11.60
2018-09-13T06:20:10.751Z,11.00
2018-09-13T06:21:10.958Z,11.30
2018-09-13T06:22:11.270Z,11.20
2018-09-13T06:23:11.381Z,10.70
2018-09-13T06:24:11.607Z,11.60
2018-09-13T06:25:11.817Z,11.00
2018-09-13T06:26:12.028Z,11.30
2018-09-13T06:27:12.229Z,11.10
2018-09-13T06:28:12.458Z,10.70
2018-09-13T06:29:12.655Z,10.80
2018-09-13T06:30:12.981Z,11.60
2018-09-13T06:31:13.237Z,11.00
2018-09-13T06:32:13.392Z,10.40
2018-09-13T06:33:13.593Z,11.50
2018-09-13T06:34:13.687Z,12.10
2018-09-13T06:35:14.299Z,12.30
2018-09-13T06:36:14.095Z,11.70
2018-09-13T06:37:14.227Z,11.20
2018-09-13T06:38:14.485Z,11.10
2018-09-13T06:39:14.986Z,12.00
2018-09-13T06:40:14.840Z,11.20
2018-09-13T06:41:15.096Z,12.10
2018-09-13T06:42:15.401Z,11.20
2018-09-13T06:43:15.497Z,11.80
2018-09-13T06:44:15.710Z,11.50
2018-09-13T06:45:16.303Z,11.20
2018-09-13T06:46:15.941Z,11.40
2018-09-13T06:47:16.299Z,11.40
2018-09-13T06:48:16.407Z,10.50
2018-09-13T06:49:16.601Z,12.40
2018-09-13T06:50:17.135Z,11.80
2018-09-13T06:51:16.803Z,12.10
2018-09-13T06:52:16.916Z,11.70
2018-09-13T06:53:17.098Z,12.20
2018-09-13T06:54:17.415Z,12.00
2018-09-13T06:55:17.519Z,12.70
2018-09-13T06:56:17.911Z,11.90
2018-09-13T06:57:18.645Z,13.10
2018-09-13T06:58:19.060Z,12.00
2018-09-13T06:59:19.276Z,10.80
2018-09-13T07:00:19.892Z,11.50
2018-09-13T07:01:19.913Z,10.60
2018-09-13T07:02:19.824Z,11.20
2018-09-13T07:03:20.421Z,11.30
2018-09-13T07:04:20.332Z,10.90
2018-09-13T07:05:20.745Z,11.40
2018-09-13T07:06:21.271Z,11.90
2018-09-13T07:07:21.163Z,11.60
2018-09-13T07:08:21.683Z,10.50
2018-09-13T07:09:21.395Z,10.70
2018-09-13T07:10:21.698Z,11.60
2018-09-13T07:11:21.804Z,12.10
2018-09-13T07:12:21.914Z,10.70
2018-09-13T07:13:22.013Z,11.40
2018-09-13T07:14:22.133Z,11.80
2018-09-13T07:15:22.219Z,11.40
2018-09-13T07:16:22.321Z,11.90
2018-09-13T07:17:22.457Z,10.90
2018-09-13T07:18:22.418Z,10.20
2018-09-13T07:19:22.779Z,10.80
2018-09-13T07:20:23.300Z,11.10
2018-09-13T07:21:23.135Z,11.20
2018-09-13T07:22:23.971Z,10.50
2018-09-13T07:23:23.900Z,10.80
2018-09-13T07:24:24.305Z,10.40
2018-09-13T07:25:24.492Z,11.20
2018-09-13T07:26:24.705Z,10.80
2018-09-13T07:27:24.940Z,11.40
2018-09-13T07:28:25.119Z,11.10
2018-09-13T07:29:25.362Z,10.60
2018-09-13T07:30:25.462Z,11.20
2018-09-13T07:31:25.717Z,10.90
2018-09-13T07:32:25.897Z,11.10
2018-09-13T07:33:26.269Z,11.30
2018-09-13T07:34:26.478Z,10.90
2018-09-13T07:35:26.788Z,10.60
2018-09-13T07:36:26.911Z,10.60
2018-09-13T07:37:27.124Z,10.30
2018-09-13T07:38:27.334Z,10.80
2018-09-13T07:39:27.794Z,11.00
2018-09-13T07:40:27.902Z,10.50
2018-09-13T07:41:28.190Z,10.40
2018-09-13T07:42:28.459Z,10.20
2018-09-13T07:43:28.598Z,10.90
2018-09-13T07:44:28.989Z,10.30
2018-09-13T07:45:29.189Z,11.10
2018-09-13T07:46:29.441Z,10.30
2018-09-13T07:47:29.961Z,10.40
2018-09-13T07:48:29.641Z,10.30
2018-09-13T07:49:29.957Z,10.90
2018-09-13T07:50:30.084Z,10.90
2018-09-13T07:51:30.299Z,10.10
2018-09-13T07:52:30.494Z,10.20
2018-09-13T07:53:30.743Z,10.80
2018-09-13T07:54:31.099Z,10.50
2018-09-13T07:55:31.613Z,10.80
2018-09-13T07:56:31.456Z,10.50
2018-09-13T07:57:31.532Z,10.20
2018-09-13T07:58:31.700Z,11.10
2018-09-13T07:59:31.797Z,10.20
2018-09-13T08:00:32.033Z,10.10
2018-09-13T08:01:32.346Z,9.80
2018-09-13T08:02:32.552Z,9.90
2018-09-13T08:03:32.712Z,10.00
2018-09-13T08:04:33.212Z,9.60
2018-09-13T08:05:34.049Z,9.80
2018-09-13T08:06:34.454Z,9.60
2018-09-13T08:07:34.872Z,9.40
2018-09-13T08:08:35.300Z,9.90
2018-09-13T08:09:35.822Z,10.00
2018-09-13T08:10:35.720Z,10.60
2018-09-13T08:11:36.096Z,9.30
2018-09-13T08:12:36.350Z,8.70
2018-09-13T08:13:36.846Z,9.00
2018-09-13T08:14:37.155Z,10.40
2018-09-13T08:15:37.139Z,9.70
2018-09-13T08:16:37.554Z,8.90
2018-09-13T08:17:37.893Z,9.20
2018-09-13T08:18:38.320Z,9.30
2018-09-13T08:19:38.686Z,9.30
2018-09-13T08:20:39.159Z,9.90
2018-09-13T08:21:39.557Z,9.40
2018-09-13T08:22:39.699Z,9.40
2018-09-13T08:23:39.911Z,9.80
2018-09-13T08:24:40.180Z,9.00
2018-09-13T08:25:40.348Z,8.90
2018-09-13T08:26:40.600Z,8.70
2018-09-13T08:27:40.796Z,9.40
2018-09-13T08:28:40.972Z,9.00
2018-09-13T08:29:41.205Z,8.70
2018-09-13T08:30:41.322Z,8.50
2018-09-13T08:31:41.532Z,8.80
2018-09-13T08:32:41.724Z,9.00
2018-09-13T08:33:42.056Z,9.40
2018-09-13T08:34:42.258Z,8.60
2018-09-13T08:35:42.342Z,9.60
2018-09-13T08:36:42.659Z,9.10
2018-09-13T08:37:42.929Z,9.60
2018-09-13T08:38:43.101Z,9.90
2018-09-13T08:39:43.397Z,9.10
2018-09-13T08:40:43.549Z,9.20
2018-09-13T08:41:43.653Z,9.60
2018-09-13T08:42:43.919Z,9.60
2018-09-13T08:43:44.321Z,10.30
2018-09-13T08:44:44.521Z,10.30
2018-09-13T08:45:44.857Z,10.00
2018-09-13T08:46:45.159Z,9.20
2018-09-13T08:47:45.461Z,10.10
2018-09-13T08:48:45.699Z,10.00
2018-09-13T08:49:45.966Z,9.90
2018-09-13T08:50:46.192Z,10.10
2018-09-13T08:51:46.382Z,9.50
2018-09-13T08:52:46.561Z,10.20
2018-09-13T08:53:46.817Z,9.90
2018-09-13T08:54:47.053Z,10.70
2018-09-13T08:55:47.204Z,9.50
2018-09-13T08:56:47.473Z,10.60
2018-09-13T08:57:47.627Z,9.90
2018-09-13T08:58:47.824Z,9.90
2018-09-13T08:59:48.214Z,9.90
2018-09-13T09:00:49.098Z,10.40
2018-09-13T09:01:49.252Z,9.90
2018-09-13T09:02:49.769Z,10.20
2018-09-13T09:03:49.881Z,10.00
2018-09-13T09:04:49.680Z,9.90
2018-09-13T09:05:50.009Z,9.20
2018-09-13T09:06:50.616Z,10.30
2018-09-13T09:07:50.626Z,10.00
2018-09-13T09:08:50.735Z,9.90
2018-09-13T09:09:50.739Z,11.00
2018-09-13T09:10:50.857Z,10.30
2018-09-13T09:11:50.871Z,9.30
2018-09-13T09:12:51.366Z,10.30
2018-09-13T09:13:51.480Z,10.10
2018-09-13T09:14:50.919Z,10.10
2018-09-13T09:15:51.598Z,9.70
2018-09-13T09:16:51.795Z,9.90
2018-09-13T09:17:52.005Z,9.70
2018-09-13T09:18:51.665Z,10.60
2018-09-13T09:19:52.195Z,10.90
2018-09-13T09:21:52.202Z,10.40
2018-09-13T09:22:52.548Z,10.00
2018-09-13T09:23:52.875Z,10.00
2018-09-13T09:24:53.286Z,9.30
2018-09-13T09:25:53.950Z,9.30
2018-09-13T09:26:54.073Z,8.70
2018-09-13T09:27:54.201Z,8.80
2018-09-13T09:28:54.195Z,9.20
2018-09-13T09:29:54.631Z,9.30
2018-09-13T09:30:54.690Z,9.00
2018-09-13T09:31:54.900Z,9.20
2018-09-13T09:32:55.017Z,8.50
2018-09-13T09:33:55.223Z,9.20
2018-09-13T09:34:55.451Z,8.50
2018-09-13T09:35:55.683Z,8.40
2018-09-13T09:36:55.851Z,9.30
2018-09-13T09:37:56.114Z,8.70
2018-09-13T09:38:56.272Z,8.40
2018-09-13T09:39:56.498Z,8.40
2018-09-13T09:40:56.822Z,8.50
2018-09-13T09:41:57.047Z,8.60
2018-09-13T09:42:57.234Z,8.70
2018-09-13T09:43:57.444Z,8.00
2018-09-13T09:44:57.677Z,8.30
2018-09-13T09:45:57.848Z,8.60
2018-09-13T09:46:58.132Z,8.80
2018-09-13T09:47:58.302Z,9.20
2018-09-13T09:48:58.433Z,8.70
2018-09-13T09:49:58.646Z,9.10
2018-09-13T09:50:58.760Z,8.80
2018-09-13T09:51:59.019Z,8.40
2018-09-13T09:52:59.218Z,8.00
2018-09-13T09:53:59.380Z,8.70
2018-09-13T09:54:59.550Z,8.70
2018-09-13T09:55:59.784Z,8.10
2018-09-13T09:57:00.009Z,8.70
2018-09-13T09:58:00.186Z,9.00
2018-09-13T09:59:00.207Z,8.30
2018-09-13T10:00:00.415Z,7.90
2018-09-13T10:01:00.522Z,8.00
2018-09-13T10:02:00.652Z,8.30
2018-09-13T10:03:00.906Z,8.60
2018-09-13T10:04:01.073Z,7.90
2018-09-13T10:05:01.373Z,8.60
2018-09-13T10:06:01.817Z,9.40
2018-09-13T10:07:02.237Z,8.50
2018-09-13T10:08:02.601Z,8.80
2018-09-13T10:09:03.741Z,7.80
2018-09-13T10:10:03.637Z,8.20
2018-09-13T10:11:04.243Z,9.20
2018-09-13T10:12:04.356Z,8.50
2018-09-13T10:13:04.268Z,8.70
2018-09-13T10:14:04.573Z,9.30
2018-09-13T10:15:04.692Z,8.50
2018-09-13T10:16:04.786Z,8.30
2018-09-13T10:17:04.999Z,9.20
2018-09-13T10:18:05.227Z,9.30
2018-09-13T10:19:05.727Z,8.40
2018-09-13T10:20:05.426Z,8.30
2018-09-13T10:21:05.745Z,8.30
2018-09-13T10:22:06.161Z,8.30
2018-09-13T10:23:06.485Z,8.70
2018-09-13T10:24:06.889Z,9.00
2018-09-13T10:25:06.988Z,8.40
2018-09-13T10:26:07.077Z,8.10
2018-09-13T10:27:07.187Z,8.40
2018-09-13T10:28:07.091Z,8.40
2018-09-13T10:29:07.555Z,8.10
2018-09-13T10:30:07.834Z,8.10
2018-09-13T10:31:08.013Z,8.80
2018-09-13T10:32:08.152Z,7.70
2018-09-13T10:33:08.379Z,8.50
2018-09-13T10:34:09.360Z,8.90
2018-09-13T10:35:09.128Z,7.50
2018-09-13T10:36:09.289Z,8.70
2018-09-13T10:37:09.505Z,8.20
2018-09-13T10:38:09.712Z,8.10
2018-09-13T10:39:09.918Z,8.10
2018-09-13T10:40:10.078Z,7.60
2018-09-13T10:41:10.294Z,8.10
2018-09-13T10:42:10.510Z,7.80
2018-09-13T10:43:10.968Z,7.40
2018-09-13T10:44:11.190Z,7.80
2018-09-13T10:45:11.379Z,7.50
2018-09-13T10:46:11.524Z,7.40
2018-09-13T10:47:11.672Z,7.40
2018-09-13T10:48:12.030Z,7.30
2018-09-13T10:49:12.338Z,7.80
2018-09-13T10:50:12.592Z,7.60
2018-09-13T10:51:12.720Z,8.00
2018-09-13T10:52:13.086Z,7.60
2018-09-13T10:53:13.427Z,8.60
2018-09-13T10:54:13.565Z,7.70
2018-09-13T10:55:14.055Z,7.90
2018-09-13T10:56:14.356Z,8.30
2018-09-13T10:57:14.473Z,7.80
2018-09-13T10:58:14.872Z,8.40
2018-09-13T10:59:15.029Z,8.50
2018-09-13T11:00:15.215Z,8.00
2018-09-13T11:01:15.347Z,7.90
2018-09-13T11:02:15.635Z,7.90
2018-09-13T11:03:15.833Z,7.70
2018-09-13T11:04:16.109Z,8.80
2018-09-13T11:05:16.409Z,7.70
2018-09-13T11:06:16.542Z,7.50
2018-09-13T11:07:16.742Z,7.70
2018-09-13T11:08:16.997Z,7.60
2018-09-13T11:09:17.220Z,7.20
2018-09-13T11:10:17.572Z,7.60
2018-09-13T11:11:17.847Z,7.70
2018-09-13T11:12:18.366Z,7.60
2018-09-13T11:13:18.574Z,6.80
2018-09-13T11:14:18.998Z,6.90
2018-09-13T11:16:19.315Z,7.20
2018-09-13T11:17:19.627Z,7.80
2018-09-13T11:18:20.250Z,8.20
2018-09-13T11:19:20.164Z,8.00
2018-09-13T11:20:20.772Z,7.60
2018-09-13T11:21:20.781Z,7.20
2018-09-13T11:22:20.902Z,7.50
2018-09-13T11:23:20.788Z,7.80
2018-09-13T11:24:22.236Z,7.90
2018-09-13T11:25:21.625Z,8.30
2018-09-13T11:26:21.945Z,8.00
2018-09-13T11:27:21.941Z,8.20
2018-09-13T11:28:22.030Z,8.10
2018-09-13T11:30:22.040Z,7.60
2018-09-13T11:31:22.387Z,8.00
2018-09-13T11:32:22.778Z,7.90
2018-09-13T11:33:23.149Z,8.10
2018-09-13T11:34:23.898Z,9.20
2018-09-13T11:35:23.947Z,8.30
2018-09-13T11:36:24.002Z,8.60
2018-09-13T11:37:23.913Z,7.90
2018-09-13T11:38:24.228Z,8.20
2018-09-13T11:39:24.405Z,8.30
2018-09-13T11:40:24.907Z,8.00
2018-09-13T11:41:24.849Z,8.50
2018-09-13T11:42:25.163Z,7.70
2018-09-13T11:43:25.385Z,7.90
2018-09-13T11:44:25.683Z,8.40
2018-09-13T11:45:26.122Z,8.60
2018-09-13T11:46:26.526Z,8.50
2018-09-13T11:47:26.718Z,8.20
2018-09-13T11:48:26.953Z,8.00
2018-09-13T11:49:27.124Z,8.20
2018-09-13T11:50:27.334Z,7.90
2018-09-13T11:51:27.557Z,7.70
2018-09-13T11:52:27.770Z,7.40
2018-09-13T11:53:28.000Z,8.90
2018-09-13T11:54:28.198Z,7.30
2018-09-13T11:55:28.393Z,8.60
2018-09-13T11:56:28.610Z,8.00
2018-09-13T11:57:28.884Z,7.60
2018-09-13T11:58:29.111Z,9.10
2018-09-13T11:59:29.351Z,7.90
2018-09-13T12:00:29.480Z,7.80
2018-09-13T12:01:29.600Z,7.70
2018-09-13T12:02:29.857Z,7.50
2018-09-13T12:03:30.051Z,7.70
2018-09-13T12:04:30.219Z,8.10
2018-09-13T12:05:30.405Z,8.30
2018-09-13T12:06:30.738Z,8.00
2018-09-13T12:07:30.929Z,8.30
2018-09-13T12:08:31.146Z,7.80
2018-09-13T12:09:31.612Z,7.70
2018-09-13T12:10:31.871Z,7.90
2018-09-13T12:11:32.123Z,8.30
2018-09-13T12:12:32.328Z,7.70
2018-09-13T12:13:32.586Z,7.70
2018-09-13T12:14:32.738Z,8.70
2018-09-13T12:15:33.212Z,8.50
2018-09-13T12:16:33.938Z,8.60
2018-09-13T12:17:34.457Z,8.00
2018-09-13T12:18:34.465Z,7.60
2018-09-13T12:19:35.391Z,6.80
2018-09-13T12:20:34.787Z,7.40
2018-09-13T12:21:35.230Z,7.20
2018-09-13T12:22:35.936Z,6.90
2018-09-13T12:23:35.829Z,7.00
2018-09-13T12:24:37.343Z,6.90
2018-09-13T12:25:36.152Z,7.40
2018-09-13T12:26:36.963Z,7.60
2018-09-13T12:27:37.116Z,7.40
2018-09-13T12:28:37.152Z,6.50
2018-09-13T12:29:37.171Z,6.90
2018-09-13T12:30:37.165Z,7.20
2018-09-13T12:31:37.498Z,6.90
2018-09-13T12:32:37.877Z,7.00
2018-09-13T12:33:38.484Z,6.90
2018-09-13T12:34:38.357Z,7.20
2018-09-13T12:35:38.832Z,6.70
2018-09-13T12:36:39.236Z,7.20
2018-09-13T12:37:39.573Z,7.50
2018-09-13T12:38:39.751Z,7.00
2018-09-13T12:39:39.967Z,7.90
2018-09-13T12:40:40.105Z,7.80
2018-09-13T12:41:40.262Z,7.00
2018-09-13T12:42:40.481Z,7.20
2018-09-13T12:43:40.610Z,7.00
2018-09-13T12:45:40.862Z,7.50
2018-09-13T12:46:40.987Z,7.40
2018-09-13T12:47:41.110Z,7.20
2018-09-13T12:48:41.468Z,7.30
2018-09-13T12:49:41.955Z,7.60
2018-09-13T12:50:42.074Z,7.40
2018-09-13T12:51:42.181Z,7.60
2018-09-13T12:52:42.569Z,7.10
2018-09-13T12:53:42.831Z,7.60
2018-09-13T12:54:43.014Z,7.10
2018-09-13T12:55:43.386Z,8.00
2018-09-13T12:56:43.697Z,7.80
2018-09-13T12:57:43.799Z,7.70
2018-09-13T12:59:44.024Z,7.40
2018-09-13T13:00:44.605Z,7.40
2018-09-13T13:01:44.315Z,7.10
2018-09-13T13:02:44.517Z,7.30
2018-09-13T13:03:44.715Z,7.40
2018-09-13T13:04:44.921Z,7.10
2018-09-13T13:05:45.116Z,7.80
2018-09-13T13:06:45.275Z,6.90
2018-09-13T13:07:45.879Z,7.60
2018-09-13T13:08:45.697Z,7.40
2018-09-13T13:09:45.887Z,7.90
2018-09-13T13:10:46.113Z,7.70
2018-09-13T13:11:46.350Z,7.40
2018-09-13T13:12:46.509Z,8.60
2018-09-13T13:13:47.878Z,7.70
2018-09-13T13:14:46.872Z,8.30
2018-09-13T13:15:47.057Z,7.50
2018-09-13T13:16:47.932Z,7.90
2018-09-13T13:17:48.300Z,7.90
2018-09-13T13:18:47.896Z,8.00
2018-09-13T13:19:48.697Z,7.80
2018-09-13T13:20:48.911Z,7.80